Time;durP1;ratioP1;P1;durP2;ratioP2;P2;SDS_P1;SDS_P2;PMS_P1;PMS_P2;Temp;Humidity;BMP_temperature;BMP_pressure;BME280_temperature;BME280_humidity;BME280_pressure;Samples;Min_cycle;Max_cycle;Signal;HPM_P1;HPM_P2
2022/10/29 00:04:09;;;;;;;14.23;8.37;;;16.50;99.90;;;;;;5039743;28;20226;-95
2022/10/29 00:06:36;;;;;;;14.95;8.18;;;16.40;99.90;;;;;;5041174;28;20938;-95
2022/10/29 00:09:12;;;;;;;13.03;8.23;;;16.40;99.90;;;;;;5040649;28;20236;-94
2022/10/29 00:11:40;;;;;;;16.83;7.90;;;16.40;99.90;;;;;;5041380;28;20227;-94
2022/10/29 00:14:13;;;;;;;13.33;7.37;;;16.30;99.90;;;;;;5042014;28;20231;-94
2022/10/29 00:16:42;;;;;;;12.17;7.43;;;16.30;99.90;;;;;;5040510;28;20612;-95
2022/10/29 00:19:14;;;;;;;17.00;8.27;;;16.30;99.90;;;;;;5039844;28;20614;-95
2022/10/29 00:21:45;;;;;;;15.60;8.23;;;16.30;99.90;;;;;;5050571;28;20217;-94
2022/10/29 00:24:14;;;;;;;15.90;7.87;;;16.30;99.90;;;;;;5045954;28;20219;-95
2022/10/29 00:26:42;;;;;;;14.53;8.00;;;16.30;99.90;;;;;;5041216;28;20211;-94
2022/10/29 00:29:10;;;;;;;15.50;8.17;;;16.30;99.90;;;;;;5040796;28;20206;-95
2022/10/29 00:31:37;;;;;;;20.07;8.90;;;16.20;99.90;;;;;;5039612;28;20266;-95
2022/10/29 00:34:05;;;;;;;14.40;7.80;;;16.20;99.90;;;;;;5040035;28;20230;-95
2022/10/29 00:36:34;;;;;;;14.33;7.60;;;16.20;99.90;;;;;;5040215;28;20207;-95
2022/10/29 00:39:02;;;;;;;16.87;8.00;;;16.10;99.90;;;;;;5039655;28;20635;-95
2022/10/29 00:41:42;;;;;;;19.60;7.90;;;16.00;99.90;;;;;;5039282;28;20225;-96
2022/10/29 00:44:31;;;;;;;18.70;8.60;;;16.00;99.90;;;;;;5041107;28;20314;-96
2022/10/29 00:47:12;;;;;;;18.30;8.77;;;16.00;99.90;;;;;;5040666;28;20719;-95
2022/10/29 00:49:46;;;;;;;19.13;7.97;;;16.00;99.90;;;;;;5040222;28;20206;-95
2022/10/29 00:52:15;;;;;;;19.57;7.30;;;16.00;99.90;;;;;;5039529;28;20309;-95
2022/10/29 00:54:46;;;;;;;20.73;7.93;;;16.00;99.90;;;;;;5040196;28;20233;-95
2022/10/29 00:57:21;;;;;;;19.60;7.73;;;15.90;99.90;;;;;;5040636;28;20281;-95
2022/10/29 00:59:51;;;;;;;19.07;8.50;;;15.90;99.90;;;;;;5040206;28;20209;-95
2022/10/29 01:02:18;;;;;;;14.47;7.47;;;15.90;99.90;;;;;;5041224;28;20218;-95
2022/10/29 01:04:46;;;;;;;20.10;8.50;;;15.90;99.90;;;;;;5054858;28;20246;-95
2022/10/29 01:07:19;;;;;;;20.97;8.10;;;15.90;99.90;;;;;;5048604;28;20191;-95
2022/10/29 01:10:03;;;;;;;23.50;8.40;;;15.90;99.90;;;;;;5058556;28;20183;-95
2022/10/29 01:13:07;;;;;;;15.33;8.20;;;16.00;99.90;;;;;;5058530;28;20274;-94
2022/10/29 01:18:44;;;;;;;23.27;8.13;;;16.00;99.90;;;;;;5058185;28;20203;-95
2022/10/29 01:28:47;;;;;;;16.97;7.70;;;16.00;99.90;;;;;;5040080;28;20214;-96
2022/10/29 01:38:06;;;;;;;17.87;7.50;;;16.00;99.90;;;;;;5095895;28;20161;-88
2022/10/29 01:53:26;;;;;;;16.37;9.80;;;15.90;99.90;;;;;;5116840;27;20591;-95
2022/10/29 01:55:58;;;;;;;19.23;9.33;;;16.00;99.90;;;;;;5115534;28;20223;-94
2022/10/29 01:58:48;;;;;;;21.30;9.30;;;16.10;99.90;;;;;;5115878;28;20214;-94
2022/10/29 02:01:49;;;;;;;18.83;9.17;;;16.10;99.90;;;;;;5115872;28;20199;-94
2022/10/29 02:04:59;;;;;;;24.53;9.47;;;16.10;99.90;;;;;;5116040;28;20212;-95
2022/10/29 02:07:38;;;;;;;19.93;9.47;;;16.10;99.90;;;;;;5107366;28;20204;-96
2022/10/29 02:10:17;;;;;;;16.47;9.90;;;16.10;99.90;;;;;;5096444;28;20223;-96
2022/10/29 02:12:47;;;;;;;22.07;10.53;;;16.10;99.90;;;;;;5096930;28;20769;-94
2022/10/29 02:15:20;;;;;;;21.07;9.73;;;16.10;99.90;;;;;;5096647;28;20263;-94
2022/10/29 02:17:48;;;;;;;15.77;9.43;;;16.10;99.90;;;;;;5097445;28;20236;-94
2022/10/29 02:20:16;;;;;;;21.87;10.40;;;16.10;99.90;;;;;;5096815;28;20236;-94
2022/10/29 02:22:45;;;;;;;15.10;9.17;;;16.20;99.90;;;;;;5096896;28;20241;-95
2022/10/29 02:25:22;;;;;;;21.97;10.10;;;16.20;99.90;;;;;;5096579;28;20712;-96
2022/10/29 02:27:49;;;;;;;20.97;10.03;;;16.20;99.90;;;;;;5101296;28;20248;-93
2022/10/29 02:30:17;;;;;;;15.13;8.63;;;16.20;99.90;;;;;;5106136;28;20208;-95
2022/10/29 02:32:45;;;;;;;15.60;8.60;;;16.20;99.90;;;;;;5095940;28;20235;-96
2022/10/29 02:35:14;;;;;;;17.07;8.63;;;16.20;99.90;;;;;;5095712;28;20281;-95
2022/10/29 02:37:49;;;;;;;16.90;9.37;;;16.20;99.90;;;;;;5096043;28;20654;-95
2022/10/29 02:40:18;;;;;;;19.60;9.67;;;16.30;99.90;;;;;;5095931;28;20287;-96
2022/10/29 02:42:45;;;;;;;19.13;9.33;;;16.30;99.90;;;;;;5094617;28;20236;-96
2022/10/29 02:45:15;;;;;;;16.47;8.87;;;16.30;99.90;;;;;;5093972;28;20195;-95
2022/10/29 02:47:42;;;;;;;22.57;9.83;;;16.20;99.90;;;;;;5094377;28;20296;-96
2022/10/29 02:50:10;;;;;;;16.40;9.00;;;16.10;99.90;;;;;;5094193;28;20656;-96
2022/10/29 02:52:37;;;;;;;15.23;8.43;;;16.20;99.90;;;;;;5093489;28;20311;-96
2022/10/29 02:55:05;;;;;;;17.43;8.53;;;16.20;99.90;;;;;;5093908;28;20205;-96
2022/10/29 02:57:38;;;;;;;15.50;8.43;;;16.30;99.90;;;;;;5093643;28;20257;-96
2022/10/29 03:00:08;;;;;;;23.53;9.00;;;16.40;99.90;;;;;;5093480;28;20215;-96
2022/10/29 03:02:35;;;;;;;15.43;8.33;;;16.40;99.90;;;;;;5088434;28;20305;-95
2022/10/29 03:05:02;;;;;;;20.43;8.40;;;16.40;99.90;;;;;;5080510;28;20547;-96
2022/10/29 03:07:48;;;;;;;13.90;9.07;;;16.50;99.90;;;;;;5092590;28;20191;-96
2022/10/29 03:10:19;;;;;;;18.00;8.77;;;16.50;99.90;;;;;;5100946;28;20197;-95
2022/10/29 03:13:03;;;;;;;17.40;9.70;;;16.50;99.90;;;;;;5137553;22;20217;-96
2022/10/29 03:21:19;;;;;;;19.07;8.67;;;16.40;99.90;;;;;;5065182;28;20199;-95
2022/10/29 03:27:14;;;;;;;16.63;8.03;;;16.50;99.90;;;;;;5084688;28;20613;-95
2022/10/29 03:30:03;;;;;;;15.47;8.07;;;16.50;99.90;;;;;;5085187;28;20256;-95
2022/10/29 03:32:54;;;;;;;18.20;8.53;;;16.60;99.90;;;;;;5083715;28;20714;-95
2022/10/29 03:35:27;;;;;;;15.67;8.23;;;16.60;99.90;;;;;;5082809;28;20201;-96
2022/10/29 03:38:06;;;;;;;14.50;7.70;;;16.60;99.90;;;;;;5082173;28;20758;-95
2022/10/29 03:40:34;;;;;;;16.03;7.83;;;16.60;99.90;;;;;;5082606;28;20186;-94
2022/10/29 03:43:12;;;;;;;18.10;8.70;;;16.50;99.90;;;;;;5082501;28;20229;-96
2022/10/29 03:46:28;;;;;;;16.63;9.35;;;16.60;99.90;;;;;;5081404;28;20409;-96
2022/10/29 03:49:02;;;;;;;19.13;8.20;;;16.80;99.90;;;;;;5082999;28;20665;-93
2022/10/29 03:51:39;;;;;;;32.53;17.20;;;16.80;99.90;;;;;;5082883;28;20225;-94
2022/10/29 03:54:18;;;;;;;20.67;9.07;;;16.70;99.90;;;;;;5095550;28;20222;-96
2022/10/29 04:10:46;;;;;;;20.67;8.20;;;16.10;99.90;;;;;;5099180;28;20209;-96
2022/10/29 04:13:28;;;;;;;18.27;7.93;;;16.20;99.90;;;;;;5099360;28;20221;-95
2022/10/29 04:16:02;;;;;;;16.60;8.13;;;16.20;99.90;;;;;;5099008;28;20194;-94
2022/10/29 04:18:39;;;;;;;12.23;7.17;;;16.20;99.90;;;;;;5099716;28;20203;-94
2022/10/29 04:21:08;;;;;;;12.27;7.60;;;16.30;99.90;;;;;;5091541;28;20216;-94
2022/10/29 04:23:38;;;;;;;16.33;8.10;;;16.30;99.90;;;;;;5087988;28;20233;-94
2022/10/29 04:26:09;;;;;;;25.43;8.50;;;16.30;99.90;;;;;;5087289;28;20218;-93
2022/10/29 04:28:46;;;;;;;21.90;8.53;;;16.30;99.90;;;;;;5086186;28;20663;-93
2022/10/29 04:31:15;;;;;;;14.00;8.37;;;16.30;99.90;;;;;;5087040;28;20196;-94
2022/10/29 04:33:46;;;;;;;19.33;7.73;;;16.30;99.90;;;;;;5084099;28;20295;-96
2022/10/29 04:36:13;;;;;;;23.73;9.60;;;16.30;99.90;;;;;;5095284;28;20213;-95
2022/10/29 04:38:47;;;;;;;19.93;9.07;;;16.30;99.90;;;;;;5083095;28;20225;-96
2022/10/29 04:41:18;;;;;;;15.23;7.90;;;16.30;99.90;;;;;;5083290;28;20272;-93
2022/10/29 04:43:46;;;;;;;17.87;7.63;;;16.30;99.90;;;;;;5082928;28;20571;-96
2022/10/29 04:46:17;;;;;;;21.93;8.37;;;16.30;99.90;;;;;;5082410;28;20209;-96
2022/10/29 04:48:48;;;;;;;17.77;7.30;;;16.40;99.90;;;;;;5081935;28;20202;-95
2022/10/29 04:51:21;;;;;;;18.00;8.03;;;16.30;99.90;;;;;;5081769;28;20198;-94
2022/10/29 04:53:55;;;;;;;21.87;8.40;;;16.30;99.90;;;;;;5082545;28;20221;-96
2022/10/29 04:56:25;;;;;;;19.23;8.67;;;16.10;99.90;;;;;;5083659;28;20220;-96
2022/10/29 04:58:58;;;;;;;21.00;9.30;;;16.10;99.90;;;;;;5086137;28;20230;-93
2022/10/29 05:01:28;;;;;;;14.57;7.60;;;16.10;99.90;;;;;;5079838;28;20206;-93
2022/10/29 05:03:58;;;;;;;13.00;7.73;;;16.00;99.90;;;;;;5084339;28;20230;-95
2022/10/29 05:06:28;;;;;;;15.60;8.00;;;15.90;99.90;;;;;;5082738;28;20205;-96
2022/10/29 05:08:58;;;;;;;17.97;8.30;;;15.90;99.90;;;;;;5084149;28;20209;-96
2022/10/29 05:11:25;;;;;;;14.70;8.57;;;15.90;99.90;;;;;;5083636;28;20210;-96
2022/10/29 05:13:54;;;;;;;17.03;8.47;;;15.90;99.90;;;;;;5082978;28;20226;-96
2022/10/29 05:16:33;;;;;;;16.87;7.93;;;16.00;99.90;;;;;;5083683;28;20205;-96
2022/10/29 05:19:08;;;;;;;20.90;9.27;;;16.00;99.90;;;;;;5094786;28;20201;-96
2022/10/29 05:21:42;;;;;;;21.97;9.00;;;16.00;99.90;;;;;;5088298;28;20193;-95
2022/10/29 05:27:14;;;;;;;21.77;9.13;;;15.90;99.90;;;;;;5081256;28;20197;-95
2022/10/29 05:32:34;;;;;;;18.30;9.20;;;15.90;99.90;;;;;;5085812;28;20264;-96
2022/10/29 05:35:07;;;;;;;22.50;9.50;;;15.90;99.90;;;;;;5083136;28;20292;-96
2022/10/29 05:37:34;;;;;;;20.87;9.63;;;15.90;99.90;;;;;;5082235;28;20212;-96
2022/10/29 05:40:07;;;;;;;16.07;8.93;;;15.90;99.90;;;;;;5082500;28;20219;-96
2022/10/29 05:42:37;;;;;;;15.33;9.80;;;15.90;99.90;;;;;;5080919;28;20232;-96
2022/10/29 05:45:10;;;;;;;28.27;8.47;;;15.80;99.90;;;;;;5081558;28;20213;-96
2022/10/29 05:47:39;;;;;;;20.73;9.13;;;15.80;99.90;;;;;;5082084;28;20206;-95
2022/10/29 05:50:16;;;;;;;18.43;9.13;;;15.70;99.90;;;;;;5082381;28;20274;-95
2022/10/29 05:52:46;;;;;;;18.50;9.43;;;15.70;99.90;;;;;;5081611;28;20249;-95
2022/10/29 05:55:19;;;;;;;19.40;8.67;;;15.80;99.90;;;;;;5083310;28;20243;-95
2022/10/29 05:57:59;;;;;;;18.70;8.63;;;15.80;99.90;;;;;;5081776;28;20558;-95
2022/10/29 06:00:32;;;;;;;25.17;8.57;;;15.70;99.90;;;;;;5079426;28;20259;-95
2022/10/29 06:03:16;;;;;;;15.87;9.00;;;15.70;99.90;;;;;;5065503;28;20686;-95
2022/10/29 06:05:54;;;;;;;25.93;9.63;;;15.70;99.90;;;;;;5061280;28;20276;-95
2022/10/29 06:08:22;;;;;;;18.40;9.27;;;15.60;99.90;;;;;;5061719;28;20295;-95
2022/10/29 06:10:53;;;;;;;20.50;9.67;;;15.60;99.90;;;;;;5062172;28;20295;-95
2022/10/29 06:13:22;;;;;;;17.23;9.03;;;15.60;99.90;;;;;;5062540;28;20237;-96
2022/10/29 06:15:52;;;;;;;20.23;9.47;;;15.50;99.90;;;;;;5063655;28;20312;-95
2022/10/29 06:18:20;;;;;;;17.07;8.87;;;15.50;99.90;;;;;;5073827;28;20193;-95
2022/10/29 06:20:56;;;;;;;17.73;8.67;;;15.50;99.90;;;;;;5067900;28;20210;-96
2022/10/29 06:23:23;;;;;;;23.20;9.77;;;15.50;99.90;;;;;;5063991;28;20312;-95
2022/10/29 06:25:55;;;;;;;21.47;8.80;;;15.60;99.90;;;;;;5064176;28;20213;-96
2022/10/29 06:28:25;;;;;;;21.03;9.10;;;15.70;99.90;;;;;;5061601;28;20204;-95
2022/10/29 06:30:59;;;;;;;21.37;10.70;;;15.70;99.90;;;;;;5065507;28;20213;-95
2022/10/29 06:33:28;;;;;;;19.93;10.00;;;15.60;99.90;;;;;;5088740;28;20236;-96
2022/10/29 06:36:00;;;;;;;20.87;9.57;;;15.50;99.90;;;;;;5086980;28;20220;-95
2022/10/29 06:38:29;;;;;;;18.80;8.97;;;15.30;99.90;;;;;;5087917;28;20227;-96
2022/10/29 06:43:42;;;;;;;17.07;8.73;;;15.20;99.90;;;;;;5081980;28;20277;-95
2022/10/29 06:48:52;;;;;;;16.20;9.73;;;15.50;99.90;;;;;;5082372;28;20216;-95
2022/10/29 06:51:31;;;;;;;17.80;8.80;;;15.50;99.90;;;;;;5080082;28;20222;-94
2022/10/29 06:53:58;;;;;;;17.57;8.30;;;15.70;99.90;;;;;;5063366;28;20246;-95
2022/10/29 06:56:53;;;;;;;15.80;8.90;;;15.70;99.90;;;;;;5070164;28;20217;-95
2022/10/29 06:59:27;;;;;;;20.30;9.37;;;15.70;99.90;;;;;;5079317;28;20206;-95
2022/10/29 07:02:02;;;;;;;26.30;10.53;;;15.80;99.90;;;;;;5076225;28;20198;-95
2022/10/29 07:07:38;;;;;;;26.40;10.33;;;15.90;99.90;;;;;;5076418;28;20341;-95
2022/10/29 07:13:09;;;;;;;19.60;8.80;;;15.80;99.90;;;;;;5075266;28;20241;-95
2022/10/29 07:15:44;;;;;;;12.63;8.57;;;15.70;99.90;;;;;;5075603;28;20214;-95
2022/10/29 07:18:21;;;;;;;18.90;9.10;;;15.70;99.90;;;;;;5073779;28;20190;-96
2022/10/29 07:23:31;;;;;;;18.37;8.63;;;15.80;99.90;;;;;;5127037;22;20237;-82
2022/10/29 07:25:58;;;;;;;18.77;8.80;;;15.80;99.90;;;;;;5075101;28;20682;-83
2022/10/29 07:28:25;;;;;;;18.77;8.10;;;16.00;99.90;;;;;;5064137;28;20203;-85
2022/10/29 07:30:53;;;;;;;14.43;8.30;;;16.00;99.90;;;;;;5054683;28;20206;-81
2022/10/29 07:33:20;;;;;;;16.33;9.07;;;16.00;99.90;;;;;;5073419;28;20226;-80
2022/10/29 07:35:47;;;;;;;15.77;8.63;;;16.00;99.90;;;;;;5062161;28;20398;-83
2022/10/29 07:38:14;;;;;;;18.37;9.17;;;16.20;99.90;;;;;;5063044;28;20203;-84
2022/10/29 07:40:48;;;;;;;20.43;8.53;;;16.30;99.90;;;;;;5075399;28;20216;-82
2022/10/29 07:43:15;;;;;;;28.00;9.93;;;16.50;99.90;;;;;;5075941;28;20213;-85
2022/10/29 07:45:42;;;;;;;16.37;8.63;;;16.60;99.90;;;;;;5076165;28;20209;-85
2022/10/29 07:48:09;;;;;;;20.87;9.37;;;16.60;99.90;;;;;;5076407;28;20197;-83
2022/10/29 07:50:37;;;;;;;22.57;8.73;;;16.70;99.90;;;;;;5078678;28;20571;-85
2022/10/29 07:53:05;;;;;;;12.10;7.90;;;16.80;99.90;;;;;;5078002;28;20251;-85
2022/10/29 07:55:32;;;;;;;16.00;7.43;;;16.80;99.90;;;;;;5077545;28;20590;-83
2022/10/29 07:58:03;;;;;;;21.67;7.97;;;16.90;99.90;;;;;;5074314;28;20213;-83
2022/10/29 08:00:30;;;;;;;16.80;7.57;;;16.90;99.90;;;;;;5074775;28;20199;-84
2022/10/29 08:02:57;;;;;;;20.17;8.53;;;17.00;99.90;;;;;;5074443;28;20204;-81
2022/10/29 08:05:25;;;;;;;17.03;7.60;;;17.10;99.90;;;;;;5066444;28;20202;-86
2022/10/29 08:07:53;;;;;;;20.67;8.03;;;17.30;99.90;;;;;;5062785;28;20582;-83
2022/10/29 08:10:20;;;;;;;21.80;8.73;;;17.30;99.90;;;;;;5056411;28;20270;-85
2022/10/29 08:12:51;;;;;;;17.57;7.73;;;17.40;99.90;;;;;;5073099;28;20222;-85
2022/10/29 08:15:20;;;;;;;24.47;8.47;;;17.40;99.90;;;;;;5054437;28;20217;-81
2022/10/29 08:17:46;;;;;;;20.13;7.50;;;17.50;99.90;;;;;;5054241;28;20222;-84
2022/10/29 08:20:14;;;;;;;15.80;7.20;;;17.60;99.90;;;;;;5054140;28;20563;-82
2022/10/29 08:22:41;;;;;;;20.80;7.57;;;17.50;99.90;;;;;;5054857;28;20213;-84
2022/10/29 08:25:08;;;;;;;18.93;7.27;;;17.60;99.90;;;;;;5053725;28;20208;-86
2022/10/29 08:27:35;;;;;;;14.40;6.70;;;17.60;99.90;;;;;;5053570;28;20210;-83
2022/10/29 08:30:02;;;;;;;22.52;7.68;;;17.60;99.90;;;;;;5053357;28;20429;-84
2022/10/29 08:32:30;;;;;;;16.07;8.03;;;17.80;99.90;;;;;;5053268;28;20230;-85
2022/10/29 08:34:57;;;;;;;17.87;6.90;;;17.80;99.90;;;;;;5053815;28;20277;-87
2022/10/29 08:37:24;;;;;;;19.67;7.17;;;18.00;99.90;;;;;;5053181;28;20219;-82
2022/10/29 08:39:51;;;;;;;17.83;6.60;;;18.10;99.90;;;;;;5053737;28;20239;-85
2022/10/29 08:42:30;;;;;;;13.03;6.40;;;18.20;99.90;;;;;;5053871;28;20217;-84
2022/10/29 08:45:16;;;;;;;15.60;6.83;;;18.40;99.90;;;;;;5053898;28;20205;-89
2022/10/29 08:47:56;;;;;;;14.23;6.40;;;18.60;99.90;;;;;;5053489;28;20583;-83
2022/10/29 08:50:28;;;;;;;12.67;6.40;;;18.60;99.90;;;;;;5054292;28;20225;-88
2022/10/29 08:52:55;;;;;;;13.33;5.73;;;18.70;99.90;;;;;;5054023;28;20231;-85
2022/10/29 08:55:26;;;;;;;16.10;6.47;;;18.60;99.90;;;;;;5053895;28;20233;-85
2022/10/29 08:57:57;;;;;;;14.67;6.43;;;18.60;99.90;;;;;;5053763;28;20203;-87
2022/10/29 09:00:30;;;;;;;16.23;6.78;;;18.60;99.90;;;;;;5052851;28;20437;-87
2022/10/29 09:03:00;;;;;;;16.87;6.57;;;18.70;99.90;;;;;;5053761;28;20220;-87
2022/10/29 09:05:32;;;;;;;15.80;6.10;;;18.80;99.90;;;;;;5053829;28;20200;-87
2022/10/29 09:08:21;;;;;;;14.97;6.00;;;18.70;99.90;;;;;;5052955;28;20670;-85
2022/10/29 09:10:53;;;;;;;16.53;6.10;;;18.80;99.90;;;;;;5039289;28;20213;-83
2022/10/29 09:13:32;;;;;;;13.43;5.90;;;18.80;99.90;;;;;;5052975;28;20242;-84
2022/10/29 09:16:16;;;;;;;17.03;6.63;;;18.80;99.90;;;;;;5053424;28;20210;-82
2022/10/29 09:18:57;;;;;;;17.07;6.00;;;18.70;99.90;;;;;;5053195;28;20206;-84
2022/10/29 09:21:36;;;;;;;21.23;5.80;;;18.80;99.90;;;;;;5053687;28;20202;-91
2022/10/29 09:24:14;;;;;;;15.47;6.30;;;19.00;99.90;;;;;;5055408;28;20213;-91
2022/10/29 09:26:54;;;;;;;19.43;6.13;;;18.80;99.90;;;;;;5053172;28;20214;-82
2022/10/29 09:29:35;;;;;;;13.93;5.97;;;18.90;99.90;;;;;;5052876;28;20210;-82
2022/10/29 09:32:05;;;;;;;10.53;5.47;;;18.90;99.90;;;;;;5052873;28;20563;-91
2022/10/29 09:34:39;;;;;;;20.07;6.03;;;19.10;99.90;;;;;;5052941;28;20230;-82
2022/10/29 09:37:15;;;;;;;17.73;5.57;;;19.20;99.90;;;;;;5053153;28;20214;-85
2022/10/29 09:39:44;;;;;;;14.73;5.43;;;19.20;99.90;;;;;;5052280;28;20256;-80
2022/10/29 09:42:13;;;;;;;14.23;5.80;;;19.20;99.90;;;;;;5052833;28;20569;-82
2022/10/29 09:44:46;;;;;;;13.47;5.17;;;19.20;99.90;;;;;;5052644;28;20214;-83
2022/10/29 09:47:21;;;;;;;15.47;5.80;;;19.30;99.90;;;;;;5052937;28;20214;-83
2022/10/29 09:50:02;;;;;;;16.83;5.20;;;19.30;99.90;;;;;;5052452;28;20205;-84
2022/10/29 09:52:33;;;;;;;16.60;5.57;;;19.30;99.90;;;;;;5052905;28;20210;-83
2022/10/29 09:55:02;;;;;;;12.97;5.33;;;19.40;99.90;;;;;;5052828;28;20206;-85
2022/10/29 09:57:31;;;;;;;12.73;5.53;;;19.50;99.90;;;;;;5052788;28;20212;-84
2022/10/29 10:00:00;;;;;;;14.93;5.73;;;19.60;99.90;;;;;;5052366;28;20661;-83
2022/10/29 10:02:32;;;;;;;16.93;5.17;;;19.70;99.90;;;;;;5052620;28;20202;-83
2022/10/29 10:05:06;;;;;;;14.50;5.60;;;19.70;99.90;;;;;;5049716;28;20203;-84
2022/10/29 10:07:33;;;;;;;20.33;5.00;;;19.90;99.90;;;;;;5049655;28;20214;-85
2022/10/29 10:10:02;;;;;;;13.93;5.67;;;20.00;99.90;;;;;;5046447;28;20208;-84
2022/10/29 10:12:43;;;;;;;13.27;5.53;;;20.10;99.90;;;;;;5046814;28;20649;-84
2022/10/29 10:15:20;;;;;;;18.97;5.10;;;20.30;99.90;;;;;;5050407;28;20209;-86
2022/10/29 10:17:55;;;;;;;19.63;5.80;;;20.30;99.90;;;;;;5056826;28;20606;-82
2022/10/29 10:20:39;;;;;;;17.27;5.03;;;20.40;99.90;;;;;;5056416;28;20213;-85
2022/10/29 10:23:21;;;;;;;12.37;4.93;;;20.50;99.90;;;;;;5054834;28;20217;-83
2022/10/29 10:25:49;;;;;;;16.13;5.33;;;20.60;99.90;;;;;;5055716;28;20676;-84
2022/10/29 10:28:18;;;;;;;12.67;4.97;;;20.60;99.90;;;;;;5055320;28;20213;-82
2022/10/29 10:30:45;;;;;;;14.90;5.30;;;20.70;99.90;;;;;;5055973;28;20650;-82
2022/10/29 10:33:24;;;;;;;13.70;4.50;;;20.80;99.90;;;;;;5055987;28;20233;-83
2022/10/29 10:35:54;;;;;;;13.73;5.30;;;20.90;99.90;;;;;;5056147;28;20210;-84
2022/10/29 10:38:21;;;;;;;15.33;5.17;;;20.90;99.90;;;;;;5056349;28;20685;-83
2022/10/29 10:40:56;;;;;;;20.83;5.50;;;21.00;99.90;;;;;;5056287;28;20213;-82
2022/10/29 10:43:24;;;;;;;13.30;4.53;;;21.10;99.90;;;;;;5055274;28;20209;-84
2022/10/29 10:45:57;;;;;;;19.17;4.90;;;21.10;99.90;;;;;;5055780;28;20207;-83
2022/10/29 10:48:27;;;;;;;13.30;5.43;;;21.20;99.90;;;;;;5056210;28;20222;-84
2022/10/29 10:51:09;;;;;;;14.13;5.43;;;21.40;99.90;;;;;;5055841;28;20924;-82
2022/10/29 10:53:38;;;;;;;14.37;5.30;;;21.40;99.90;;;;;;5055758;28;20234;-85
2022/10/29 10:56:06;;;;;;;20.90;5.70;;;21.40;99.90;;;;;;5055939;28;20203;-84
2022/10/29 10:58:37;;;;;;;18.67;5.67;;;21.50;99.90;;;;;;5055071;28;20572;-83
2022/10/29 11:01:14;;;;;;;13.03;5.03;;;21.70;99.90;;;;;;5054840;28;20213;-80
2022/10/29 11:03:46;;;;;;;14.80;5.03;;;21.80;99.90;;;;;;5056833;28;20609;-88
2022/10/29 11:06:17;;;;;;;12.47;4.93;;;21.90;99.90;;;;;;5057170;28;20587;-87
2022/10/29 11:08:52;;;;;;;14.60;4.70;;;22.10;99.90;;;;;;5051250;28;20575;-85
2022/10/29 11:11:26;;;;;;;13.57;4.95;;;22.20;99.90;;;;;;5046013;28;20436;-86
2022/10/29 11:13:54;;;;;;;12.27;4.47;;;22.40;99.90;;;;;;5055259;28;20237;-83
2022/10/29 11:16:30;;;;;;;16.30;4.90;;;22.50;99.90;;;;;;5054754;28;20610;-85
2022/10/29 11:19:04;;;;;;;17.20;4.30;;;22.60;99.90;;;;;;5054906;28;20203;-83
2022/10/29 11:21:38;;;;;;;16.17;4.97;;;22.70;99.90;;;;;;5055208;28;20213;-82
2022/10/29 11:24:12;;;;;;;11.40;4.77;;;22.80;99.90;;;;;;5054353;28;20232;-80
2022/10/29 11:26:42;;;;;;;12.40;4.63;;;22.80;99.90;;;;;;5054874;28;20206;-84
2022/10/29 11:29:17;;;;;;;16.10;5.30;;;22.70;99.90;;;;;;5054813;28;20221;-83
2022/10/29 11:31:51;;;;;;;16.67;4.17;;;22.90;99.90;;;;;;5055495;28;20210;-84
2022/10/29 11:34:23;;;;;;;14.17;4.93;;;23.00;99.90;;;;;;5055272;28;20221;-81
2022/10/29 11:37:00;;;;;;;17.30;4.93;;;23.10;99.90;;;;;;5055067;28;20218;-81
2022/10/29 11:39:31;;;;;;;11.23;4.90;;;23.10;99.90;;;;;;5054995;28;20576;-81
2022/10/29 11:42:00;;;;;;;11.40;4.30;;;23.20;99.90;;;;;;5046750;28;20198;-86
2022/10/29 11:44:28;;;;;;;16.67;4.47;;;23.20;99.90;;;;;;5055130;28;20199;-84
2022/10/29 11:47:09;;;;;;;14.77;4.20;;;23.20;99.90;;;;;;5054924;28;20205;-85
2022/10/29 11:49:57;;;;;;;17.23;4.53;;;23.30;99.90;;;;;;5054822;28;20209;-85
2022/10/29 11:52:31;;;;;;;12.60;4.80;;;23.30;99.90;;;;;;5054828;28;20576;-83
2022/10/29 11:55:14;;;;;;;14.43;4.30;;;23.50;99.90;;;;;;5054599;28;20317;-83
2022/10/29 11:57:48;;;;;;;19.23;4.37;;;23.70;99.90;;;;;;5054705;28;20669;-81
2022/10/29 12:00:18;;;;;;;15.90;4.80;;;23.70;99.90;;;;;;5054612;28;20208;-82
2022/10/29 12:03:11;;;;;;;12.30;4.87;;;23.80;99.90;;;;;;5054872;28;20206;-82
2022/10/29 12:05:44;;;;;;;13.17;4.73;;;23.90;99.90;;;;;;5054400;28;20207;-80
2022/10/29 12:08:27;;;;;;;14.30;3.73;;;24.00;99.90;;;;;;5054969;28;20191;-83
2022/10/29 12:11:04;;;;;;;14.67;4.00;;;23.90;99.90;;;;;;5053855;28;20582;-80
2022/10/29 12:13:46;;;;;;;7.40;3.73;;;23.90;99.90;;;;;;5054382;28;20240;-79
2022/10/29 12:16:27;;;;;;;14.40;4.20;;;23.90;99.90;;;;;;5054374;28;20202;-80
2022/10/29 12:19:01;;;;;;;14.90;4.43;;;23.90;99.90;;;;;;5054791;28;20256;-81
2022/10/29 12:21:36;;;;;;;20.07;4.77;;;24.00;99.90;;;;;;5054605;28;20198;-79
2022/10/29 12:24:18;;;;;;;10.90;3.93;;;23.90;99.90;;;;;;5054154;28;20213;-82
2022/10/29 12:26:50;;;;;;;14.47;4.10;;;24.00;99.90;;;;;;5054924;28;20199;-85
2022/10/29 12:29:23;;;;;;;13.37;6.50;;;24.20;99.90;;;;;;5055403;28;20218;-86
2022/10/29 12:32:00;;;;;;;12.00;5.07;;;24.20;99.90;;;;;;5055262;28;20209;-85
2022/10/29 12:34:31;;;;;;;13.90;4.30;;;24.20;99.90;;;;;;5055003;28;20236;-85
2022/10/29 12:37:08;;;;;;;8.70;4.13;;;24.30;99.90;;;;;;5053429;28;20662;-82
2022/10/29 12:39:41;;;;;;;16.47;4.63;;;24.40;99.90;;;;;;5053579;28;20206;-84
2022/10/29 12:42:17;;;;;;;15.73;4.07;;;24.60;99.90;;;;;;5053938;28;20201;-81
2022/10/29 12:44:50;;;;;;;16.70;4.70;;;24.80;99.90;;;;;;5053932;28;20657;-81
2022/10/29 12:47:23;;;;;;;15.00;4.20;;;24.80;99.90;;;;;;5053680;28;20209;-79
2022/10/29 12:50:02;;;;;;;11.97;4.30;;;24.80;99.90;;;;;;5053808;28;20214;-80
2022/10/29 12:52:37;;;;;;;19.70;4.97;;;25.00;99.90;;;;;;5053652;28;20206;-80
2022/10/29 12:55:08;;;;;;;14.00;4.23;;;24.90;99.90;;;;;;5053901;28;20218;-79
2022/10/29 12:57:36;;;;;;;18.30;4.87;;;25.00;99.90;;;;;;5053444;28;20582;-81
2022/10/29 13:00:32;;;;;;;12.40;4.27;;;25.10;99.90;;;;;;5053950;28;20575;-80
2022/10/29 13:02:59;;;;;;;10.43;3.90;;;24.90;99.90;;;;;;5053667;28;20209;-79
2022/10/29 13:05:38;;;;;;;11.40;3.67;;;25.00;99.90;;;;;;5053293;28;20206;-81
2022/10/29 13:08:26;;;;;;;14.77;3.80;;;25.10;99.90;;;;;;5053732;28;20206;-80
2022/10/29 13:10:56;;;;;;;13.17;3.63;;;25.00;99.90;;;;;;5053230;28;20685;-81
2022/10/29 13:13:42;;;;;;;12.00;3.63;;;24.90;99.90;;;;;;5053152;28;20230;-81
2022/10/29 13:16:15;;;;;;;9.70;3.60;;;24.80;99.90;;;;;;5052729;28;20548;-81
2022/10/29 13:19:12;;;;;;;16.35;3.88;;;24.80;99.90;;;;;;5052185;28;20624;-82
2022/10/29 13:22:10;;;;;;;10.23;3.73;;;24.90;99.90;;;;;;5037370;28;20202;-80
2022/10/29 13:24:36;;;;;;;9.63;3.40;;;24.90;99.90;;;;;;5019824;28;20218;-81
2022/10/29 13:27:21;;;;;;;14.70;3.43;;;25.10;99.90;;;;;;5052989;28;20198;-80
2022/10/29 13:29:50;;;;;;;10.93;3.67;;;25.10;99.90;;;;;;5052076;28;20198;-81
2022/10/29 13:32:33;;;;;;;13.83;3.63;;;25.20;99.90;;;;;;5053270;28;20199;-79
2022/10/29 13:35:02;;;;;;;14.43;3.70;;;25.40;99.90;;;;;;5052972;28;20236;-81
2022/10/29 13:38:23;;;;;;;13.93;4.00;;;25.50;99.90;;;;;;5052498;28;20199;-79
2022/10/29 13:41:10;;;;;;;26.40;4.50;;;25.60;99.90;;;;;;5037609;28;20203;-81
2022/10/29 13:43:40;;;;;;;24.00;5.03;;;25.70;99.90;;;;;;5052460;28;20979;-81
2022/10/29 13:46:25;;;;;;;17.90;4.70;;;25.40;99.90;;;;;;5052791;28;20661;-83
2022/10/29 13:48:54;;;;;;;15.18;4.10;;;25.40;99.90;;;;;;5045132;28;20206;-79
2022/10/29 13:51:33;;;;;;;25.07;4.73;;;25.40;99.90;;;;;;5052976;28;20194;-80
2022/10/29 13:54:05;;;;;;;11.77;3.90;;;25.20;99.90;;;;;;5052978;28;20653;-81
2022/10/29 13:56:39;;;;;;;9.03;3.77;;;25.10;99.90;;;;;;5052913;28;20248;-81
2022/10/29 13:59:17;;;;;;;10.90;3.97;;;24.80;99.90;;;;;;5052545;28;20210;-81
2022/10/29 14:01:59;;;;;;;13.50;3.70;;;24.70;99.90;;;;;;5052706;28;20199;-84
2022/10/29 14:04:31;;;;;;;11.23;3.77;;;24.70;99.90;;;;;;5052375;28;20582;-80
2022/10/29 14:07:00;;;;;;;9.73;4.20;;;24.80;99.90;;;;;;5052651;28;20203;-80
2022/10/29 14:09:36;;;;;;;11.67;3.97;;;24.70;99.90;;;;;;5052683;28;20195;-80
2022/10/29 14:12:07;;;;;;;16.77;4.50;;;24.80;99.90;;;;;;5052900;28;20206;-80
2022/10/29 14:14:49;;;;;;;19.00;4.07;;;24.70;99.90;;;;;;5052071;28;20234;-81
2022/10/29 14:17:18;;;;;;;14.50;3.80;;;24.60;99.90;;;;;;5052844;28;20210;-80
2022/10/29 14:19:46;;;;;;;18.27;4.20;;;24.50;99.90;;;;;;5052237;28;20213;-82
2022/10/29 14:22:29;;;;;;;13.00;3.50;;;24.50;99.90;;;;;;5052807;28;20198;-83
2022/10/29 14:24:56;;;;;;;14.47;4.07;;;24.50;99.90;;;;;;5052308;28;20221;-79